createdAt,value
2017-12-26T00:01:20.400Z,5.70
2017-12-26T00:03:46.667Z,5.50
2017-12-26T00:06:12.936Z,5.60
2017-12-26T00:08:39.944Z,5.50
2017-12-26T00:11:06.256Z,5.50
2017-12-26T00:13:32.521Z,5.50
2017-12-26T00:15:58.805Z,5.40
2017-12-26T00:18:25.051Z,5.50
2017-12-26T00:20:51.337Z,5.50
2017-12-26T00:23:18.311Z,5.50
2017-12-26T00:25:44.582Z,5.50
2017-12-26T00:28:11.607Z,5.40
2017-12-26T00:30:38.916Z,5.40
2017-12-26T00:33:05.896Z,5.40
2017-12-26T00:35:32.176Z,5.40
2017-12-26T00:37:59.161Z,5.40
2017-12-26T00:40:25.425Z,5.40
2017-12-26T00:42:51.676Z,5.40
2017-12-26T00:45:18.389Z,5.30
2017-12-26T00:47:44.672Z,5.30
2017-12-26T00:50:10.928Z,5.30
2017-12-26T00:52:37.155Z,5.30
2017-12-26T00:55:03.401Z,5.20
2017-12-26T00:57:29.655Z,5.20
2017-12-26T00:59:55.902Z,5.30
2017-12-26T01:02:22.940Z,5.20
2017-12-26T01:04:49.958Z,5.20
2017-12-26T01:07:16.236Z,5.20
2017-12-26T01:09:42.500Z,5.30
2017-12-26T01:12:08.781Z,5.20
2017-12-26T01:14:35.764Z,5.20
2017-12-26T01:17:02.035Z,5.20
2017-12-26T01:19:28.306Z,5.20
2017-12-26T01:21:54.560Z,5.20
2017-12-26T01:24:20.898Z,5.20
2017-12-26T01:26:47.221Z,5.20
2017-12-26T01:29:13.464Z,5.20
2017-12-26T01:31:39.719Z,5.20
2017-12-26T01:34:05.951Z,5.00
2017-12-26T01:36:32.952Z,4.90
2017-12-26T01:38:59.345Z,4.90
2017-12-26T01:41:26.351Z,4.90
2017-12-26T01:43:52.566Z,4.90
2017-12-26T01:46:22.798Z,5.00
2017-12-26T01:48:49.007Z,4.90
2017-12-26T01:51:15.243Z,5.00
2017-12-26T01:53:41.475Z,5.00
2017-12-26T01:56:07.749Z,5.00
2017-12-26T01:58:34.743Z,4.90
2017-12-26T02:01:00.994Z,4.90
2017-12-26T02:03:27.222Z,4.90
2017-12-26T02:05:53.499Z,4.90
2017-12-26T02:08:19.729Z,4.70
2017-12-26T02:10:46.005Z,4.60
2017-12-26T02:13:12.239Z,4.60
2017-12-26T02:15:38.504Z,4.40
2017-12-26T02:18:05.491Z,4.30
2017-12-26T02:20:31.755Z,4.20
2017-12-26T02:22:57.981Z,4.20
2017-12-26T02:25:24.248Z,4.10
2017-12-26T02:27:50.576Z,4.10
2017-12-26T02:30:16.817Z,4.00
2017-12-26T02:32:43.070Z,4.00
2017-12-26T02:35:09.290Z,4.00
2017-12-26T02:37:35.601Z,3.90
2017-12-26T02:40:01.823Z,3.90
2017-12-26T02:42:28.072Z,3.80
2017-12-26T02:44:54.300Z,3.70
2017-12-26T02:47:20.551Z,3.70
2017-12-26T02:49:46.787Z,3.70
2017-12-26T02:52:13.163Z,3.70
2017-12-26T02:54:39.404Z,3.60
2017-12-26T02:57:05.801Z,3.60
2017-12-26T02:59:32.797Z,3.60
2017-12-26T03:01:59.085Z,3.60
2017-12-26T03:04:26.063Z,3.50
2017-12-26T03:06:52.323Z,3.50
2017-12-26T03:09:18.571Z,3.60
2017-12-26T03:11:44.826Z,3.50
2017-12-26T03:14:11.803Z,3.40
2017-12-26T03:16:38.042Z,3.40
2017-12-26T03:19:04.333Z,3.40
2017-12-26T03:21:30.589Z,3.40
2017-12-26T03:23:56.848Z,3.40
2017-12-26T03:26:24.594Z,3.30
2017-12-26T03:28:51.013Z,3.30
2017-12-26T03:31:17.311Z,3.30
2017-12-26T03:33:44.294Z,3.30
2017-12-26T03:36:10.537Z,3.30
2017-12-26T03:38:36.815Z,3.30
2017-12-26T03:41:03.808Z,3.30
2017-12-26T03:43:30.083Z,3.20
2017-12-26T03:45:57.074Z,3.20
2017-12-26T03:48:23.336Z,3.20
2017-12-26T03:50:49.626Z,3.30
2017-12-26T03:53:15.858Z,3.20
2017-12-26T03:55:42.095Z,3.30
2017-12-26T03:58:08.341Z,3.20
2017-12-26T04:00:34.595Z,3.20
2017-12-26T04:03:01.573Z,3.10
2017-12-26T04:05:27.832Z,3.10
2017-12-26T04:07:54.059Z,3.00
2017-12-26T04:10:20.354Z,2.90
2017-12-26T04:12:46.604Z,2.80
2017-12-26T04:15:12.855Z,2.80
2017-12-26T04:17:39.113Z,2.80
2017-12-26T04:20:05.369Z,2.80
2017-12-26T04:22:31.628Z,2.80
2017-12-26T04:24:57.933Z,2.70
2017-12-26T04:27:24.179Z,2.70
2017-12-26T04:29:50.474Z,2.70
2017-12-26T04:32:17.430Z,2.60
2017-12-26T04:34:43.679Z,2.60
2017-12-26T04:37:09.917Z,2.60
2017-12-26T04:39:36.190Z,2.60
2017-12-26T04:42:02.473Z,2.60
2017-12-26T04:44:28.733Z,2.60
2017-12-26T04:46:54.989Z,2.60
2017-12-26T04:49:22.031Z,2.60
2017-12-26T04:51:49.016Z,2.60
2017-12-26T04:54:15.286Z,2.60
2017-12-26T04:56:41.533Z,2.60
2017-12-26T04:59:08.524Z,2.60
2017-12-26T05:01:34.743Z,2.60
2017-12-26T05:04:00.980Z,2.60
2017-12-26T05:06:27.252Z,2.60
2017-12-26T05:08:53.509Z,2.60
2017-12-26T05:11:20.484Z,2.60
2017-12-26T05:13:46.733Z,2.60
2017-12-26T05:16:12.965Z,2.70
2017-12-26T05:18:39.207Z,2.70
2017-12-26T05:21:05.434Z,2.70
2017-12-26T05:23:31.705Z,2.70
2017-12-26T05:25:57.948Z,2.70
2017-12-26T05:28:24.199Z,2.70
2017-12-26T05:30:50.438Z,2.80
2017-12-26T05:33:16.704Z,2.80
2017-12-26T05:35:43.701Z,2.90
2017-12-26T05:38:09.981Z,2.90
2017-12-26T05:40:36.950Z,3.00
2017-12-26T05:43:03.220Z,3.00
2017-12-26T05:45:29.460Z,3.00
2017-12-26T05:47:55.712Z,3.00
2017-12-26T05:50:22.712Z,2.90
2017-12-26T05:52:48.959Z,2.90
2017-12-26T05:55:15.191Z,2.90
2017-12-26T05:57:41.450Z,2.80
2017-12-26T06:00:08.489Z,3.00
2017-12-26T06:02:35.501Z,3.10
2017-12-26T06:05:01.719Z,3.00
2017-12-26T06:07:27.991Z,3.20
2017-12-26T06:09:54.970Z,3.70
2017-12-26T06:12:21.229Z,3.60
2017-12-26T06:14:48.231Z,4.00
2017-12-26T06:17:14.496Z,3.90
